ワガドゥグー の空港の天気 - METARとTAF

ワガドゥグー空港 ( DFFD / OUA ) - ブルキナファソ ワガドゥグー
飛行場実況気象(Metar)
観測時間08/04 20:00 GMT (08/04 20:00 UTC)
風向・風速西南西 2m/s
視程10km以上
天気現象
少しの雲 雲底高度 640m
気温27℃
湿度74%
気圧1015hPa
METARDFFD 042000Z 24004KT 210V270 9999 FEW021 27/22 Q1015 NOSIG
過去の天気等 Google飛行場航空写真 Wunderground天気予報

過去48時間のMETAR

飛行場予報(TAF)
発表時間: 8/04 17:00 GMT (8/04 17:00 UTC)
予報対象時間: 4日18時 GMT ~ 6日0時 GMT
風向・風速西南西 4m/s
視程10km以上
全天の4割程度の雲 雲底高度 610m
4日20時 GMT ~ 5日4時 GMT に一時的に
視程4000m
天気現象雷 しゅう雨
全天の8割程度の雲 雲底高度 610m
全天の4割程度の積乱雲 雲底高度 1010m
5日14時 GMT ~ 5日22時 GMT に一時的に
視程4000m
天気現象雷 しゅう雨
全天の4割程度の雲 雲底高度 610m
少しの積乱雲 雲底高度 1010m
TAF DFFD 041700Z 0418/0524 24008KT 9999 SCT020
TEMPO 0420/0504 4000 TS SHRA BKN020 SCT033CB
TEMPO 0514/0522 4000 TS SHRA SCT020 FEW033CB